TFM - Tactical Decision Aid
ID: Runway Winds: CIG/VIS Threshold:

KSAN - San Diego Intl Arpt, CA, US

Updated at: 0134 UTC 12 May 2021
Latest TAF at: 2340 UTC 11 May 2021

TAF Board

Time0051Z 12/02Z 12/03Z 12/04Z 12/05Z 12/06Z 12/07Z 12/08Z 12/09Z 12/10Z 12/11Z 12/12Z 12/13Z 12/14Z>>
Type OBS PRVL PRVL PRVL PRVL PRVL PRVL PRVL PRVL PRVL PRVL PRVL PRVL PRVL
VIS 10 >6 >6 >6 >6 >6 >6 >6 >6 >6 >6 >6 >6 >6
CIG -- -- -- -- -- 15 15 15 15 15 15 15 15 15
Cover SCT SCT SCT SCT SCT OVC OVC OVC OVC OVC OVC OVC OVC OVC
FltCat VFR VFR VFR VFR VFR MVFR MVFR MVFR MVFR MVFR MVFR MVFR MVFR MVFR
WX -- -- -- -- -- -- -- -- -- -- -- -- -- --
WDir 230 300 VRB VRB VRB VRB VRB VRB VRB VRB VRB VRB VRB VRB
WSpd 7 8 4 4 4 4 4 4 4 4 4 4 4 4
WGst -- -- -- -- -- -- -- -- -- -- -- -- -- --

TDA Impact Legend

  None Marginal Slight Moderate High
Visibility (sm) >5 3≤X≤5 2≤X<3 1≤X<2 <1
Ceiling (100 ft) >30 10≤X≤30 8≤X<10 4≤X<8 <4
Wind Speed (kt) <15 15≤X<25 25≤X<30 ≥30
Wind Gust (kt) <15 15≤X<25 25≤X<35 ≥35
Weather No Wx Reported VCTS -TS,-FZRA TS,FZRA +TS,+FZRA
TAF
KSAN 112340Z 1200/1306 30008KT P6SM BKN021
  FM120010 30008KT P6SM SCT021
  FM120300 VRB04KT P6SM SCT015
  FM120600 VRB04KT P6SM OVC015
  FM122000 27009KT P6SM SCT015
  FM130300 VRB04KT P6SM OVC015


METAR
KSAN 120051Z 23007KT 180V250 10SM SCT020 19/12 A2994 RMK AO2 SLP137 T01890117
KSAN 112351Z VRB05KT 10SM SCT020 19/12 A2993 RMK AO2 SLP134 T01940117 10194 20172 56004
KSAN 112342Z 25006KT 10SM SCT020 19/12 A2993 RMK AO2 T01940117
KSAN 112251Z 31005KT 10SM BKN020 19/12 A2993 RMK AO2 SLP135 T01890117

Radar Display
Forecast Discussion